sensor_id;sensor_type;location;lat;lon;timestamp;pressure;altitude;pressure_sealevel;temperature;humidity
17607;BME280;69222;52.242;20.980;2023-04-25T00:01:39;99017.69;;;13.96;62.73
17607;BME280;69222;52.242;20.980;2023-04-25T00:04:08;99018.56;;;13.95;62.78
17607;BME280;69222;52.242;20.980;2023-04-25T00:06:38;99024.84;;;13.90;63.05
17607;BME280;69222;52.242;20.980;2023-04-25T00:09:06;99022.38;;;13.87;63.25
17607;BME280;69222;52.242;20.980;2023-04-25T00:11:36;99016.63;;;13.80;63.32
17607;BME280;69222;52.242;20.980;2023-04-25T00:14:04;99015.19;;;13.73;63.88
17607;BME280;69222;52.242;20.980;2023-04-25T00:16:33;99009.44;;;13.66;64.21
17607;BME280;69222;52.242;20.980;2023-04-25T00:19:02;99017.31;;;13.63;64.33
17607;BME280;69222;52.242;20.980;2023-04-25T00:21:32;99018.28;;;13.61;64.49
17607;BME280;69222;52.242;20.980;2023-04-25T00:24:00;99019.13;;;13.61;64.22
17607;BME280;69222;52.242;20.980;2023-04-25T00:26:29;99019.84;;;13.65;64.39
17607;BME280;69222;52.242;20.980;2023-04-25T00:28:57;99009.44;;;13.66;64.36
17607;BME280;69222;52.242;20.980;2023-04-25T00:31:25;99012.75;;;13.70;64.67
17607;BME280;69222;52.242;20.980;2023-04-25T00:33:53;99016.16;;;13.70;64.61
17607;BME280;69222;52.242;20.980;2023-04-25T00:36:21;99019.91;;;13.63;64.93
17607;BME280;69222;52.242;20.980;2023-04-25T00:38:50;99020.03;;;13.60;64.93
17607;BME280;69222;52.242;20.980;2023-04-25T00:41:18;99027.06;;;13.57;65.49
17607;BME280;69222;52.242;20.980;2023-04-25T00:43:47;99024.78;;;13.49;65.87
17607;BME280;69222;52.242;20.980;2023-04-25T00:46:16;99015.50;;;13.43;66.00
17607;BME280;69222;52.242;20.980;2023-04-25T00:48:44;99016.31;;;13.45;66.27
17607;BME280;69222;52.242;20.980;2023-04-25T00:51:14;99020.47;;;13.49;66.00
17607;BME280;69222;52.242;20.980;2023-04-25T00:53:44;99013.59;;;13.48;66.73
17607;BME280;69222;52.242;20.980;2023-04-25T00:56:13;99021.53;;;13.44;66.31
17607;BME280;69222;52.242;20.980;2023-04-25T00:58:42;99026.13;;;13.37;66.91
17607;BME280;69222;52.242;20.980;2023-04-25T01:01:10;99025.41;;;13.34;67.71
17607;BME280;69222;52.242;20.980;2023-04-25T01:03:39;99038.50;;;13.29;67.53
17607;BME280;69222;52.242;20.980;2023-04-25T01:06:09;99024.00;;;13.25;67.88
17607;BME280;69222;52.242;20.980;2023-04-25T01:08:38;99024.16;;;13.20;68.56
17607;BME280;69222;52.242;20.980;2023-04-25T01:11:06;99028.59;;;13.17;68.69
17607;BME280;69222;52.242;20.980;2023-04-25T01:13:35;99022.81;;;13.10;69.39
17607;BME280;69222;52.242;20.980;2023-04-25T01:16:04;99028.06;;;13.09;69.67
17607;BME280;69222;52.242;20.980;2023-04-25T01:18:32;99029.09;;;13.04;70.00
17607;BME280;69222;52.242;20.980;2023-04-25T01:21:08;99021.25;;;13.06;69.90
17607;BME280;69222;52.242;20.980;2023-04-25T01:23:38;99022.97;;;13.07;70.15
17607;BME280;69222;52.242;20.980;2023-04-25T01:26:06;99022.88;;;13.09;70.52
17607;BME280;69222;52.242;20.980;2023-04-25T01:28:36;99026.31;;;13.09;70.62
17607;BME280;69222;52.242;20.980;2023-04-25T01:31:04;99024.69;;;13.06;70.94
17607;BME280;69222;52.242;20.980;2023-04-25T01:33:32;99021.31;;;13.04;71.14
17607;BME280;69222;52.242;20.980;2023-04-25T01:36:00;99018.03;;;12.99;71.54
17607;BME280;69222;52.242;20.980;2023-04-25T01:38:30;99026.53;;;13.03;71.40
17607;BME280;69222;52.242;20.980;2023-04-25T01:40:58;99029.25;;;13.00;71.49
17607;BME280;69222;52.242;20.980;2023-04-25T01:43:26;99025.81;;;12.99;71.50
17607;BME280;69222;52.242;20.980;2023-04-25T01:45:54;99022.44;;;12.97;71.94
17607;BME280;69222;52.242;20.980;2023-04-25T01:48:22;99024.94;;;13.00;72.03
17607;BME280;69222;52.242;20.980;2023-04-25T01:50:50;99016.16;;;13.04;72.02
17607;BME280;69222;52.242;20.980;2023-04-25T01:53:18;99015.91;;;13.11;71.91
17607;BME280;69222;52.242;20.980;2023-04-25T01:55:48;99022.59;;;13.16;71.52
17607;BME280;69222;52.242;20.980;2023-04-25T01:58:15;99011.53;;;13.13;71.41
17607;BME280;69222;52.242;20.980;2023-04-25T02:00:43;99020.06;;;13.15;71.75
17607;BME280;69222;52.242;20.980;2023-04-25T02:03:11;99016.69;;;13.13;71.63
17607;BME280;69222;52.242;20.980;2023-04-25T02:05:40;99017.66;;;13.10;71.68
17607;BME280;69222;52.242;20.980;2023-04-25T02:08:09;99027.16;;;13.10;71.46
17607;BME280;69222;52.242;20.980;2023-04-25T02:10:37;99022.09;;;13.06;72.30
17607;BME280;69222;52.242;20.980;2023-04-25T02:13:06;99019.03;;;12.97;72.47
17607;BME280;69222;52.242;20.980;2023-04-25T02:15:34;99020.88;;;12.93;72.71
17607;BME280;69222;52.242;20.980;2023-04-25T02:18:02;99018.53;;;12.87;73.08
17607;BME280;69222;52.242;20.980;2023-04-25T02:20:30;99016.84;;;12.86;73.12
17607;BME280;69222;52.242;20.980;2023-04-25T02:22:58;99012.56;;;12.85;72.90
17607;BME280;69222;52.242;20.980;2023-04-25T02:25:26;99005.69;;;12.84;73.45
17607;BME280;69222;52.242;20.980;2023-04-25T02:27:55;99003.28;;;12.79;73.45
17607;BME280;69222;52.242;20.980;2023-04-25T02:30:24;99010.16;;;12.80;73.44
17607;BME280;69222;52.242;20.980;2023-04-25T02:32:52;99002.50;;;12.77;73.12
17607;BME280;69222;52.242;20.980;2023-04-25T02:35:20;99005.16;;;12.76;73.40
17607;BME280;69222;52.242;20.980;2023-04-25T02:37:48;99006.28;;;12.69;73.84
17607;BME280;69222;52.242;20.980;2023-04-25T02:40:16;99010.78;;;12.64;73.51
17607;BME280;69222;52.242;20.980;2023-04-25T02:42:44;98996.59;;;12.50;73.94
17607;BME280;69222;52.242;20.980;2023-04-25T02:45:13;99006.03;;;12.51;74.20
17607;BME280;69222;52.242;20.980;2023-04-25T02:47:42;99010.44;;;12.49;74.32
17607;BME280;69222;52.242;20.980;2023-04-25T02:50:11;99017.38;;;12.47;74.54
17607;BME280;69222;52.242;20.980;2023-04-25T02:52:39;99001.88;;;12.47;74.24
17607;BME280;69222;52.242;20.980;2023-04-25T02:55:07;99000.22;;;12.46;74.32
17607;BME280;69222;52.242;20.980;2023-04-25T02:57:37;99007.06;;;12.47;74.30
17607;BME280;69222;52.242;20.980;2023-04-25T03:00:06;99002.00;;;12.44;74.16
17607;BME280;69222;52.242;20.980;2023-04-25T03:02:34;99002.22;;;12.38;74.15
17607;BME280;69222;52.242;20.980;2023-04-25T03:05:04;98997.91;;;12.39;74.29
17607;BME280;69222;52.242;20.980;2023-04-25T03:07:32;99008.22;;;12.39;74.62
17607;BME280;69222;52.242;20.980;2023-04-25T03:10:00;99002.22;;;12.38;74.47
17607;BME280;69222;52.242;20.980;2023-04-25T03:12:28;99004.06;;;12.35;74.49
17607;BME280;69222;52.242;20.980;2023-04-25T03:14:56;98994.66;;;12.33;74.55
17607;BME280;69222;52.242;20.980;2023-04-25T03:17:24;98999.00;;;12.31;74.66
17607;BME280;69222;52.242;20.980;2023-04-25T03:19:52;99007.66;;;12.30;74.79
17607;BME280;69222;52.242;20.980;2023-04-25T03:22:22;99004.34;;;12.27;74.88
17607;BME280;69222;52.242;20.980;2023-04-25T03:24:50;99006.13;;;12.25;75.09
17607;BME280;69222;52.242;20.980;2023-04-25T03:27:18;99004.56;;;12.21;75.03
17607;BME280;69222;52.242;20.980;2023-04-25T03:29:46;99006.22;;;12.22;75.18
17607;BME280;69222;52.242;20.980;2023-04-25T03:32:14;99009.50;;;12.27;75.23
17607;BME280;69222;52.242;20.980;2023-04-25T03:34:42;99009.41;;;12.30;74.98
17607;BME280;69222;52.242;20.980;2023-04-25T03:37:10;99013.66;;;12.31;74.95
17607;BME280;69222;52.242;20.980;2023-04-25T03:39:39;99014.44;;;12.33;74.89
17607;BME280;69222;52.242;20.980;2023-04-25T03:42:07;99015.31;;;12.33;74.77
17607;BME280;69222;52.242;20.980;2023-04-25T03:44:35;99019.47;;;12.38;74.49
17607;BME280;69222;52.242;20.980;2023-04-25T03:47:03;99021.22;;;12.37;74.57
17607;BME280;69222;52.242;20.980;2023-04-25T03:49:32;99022.91;;;12.38;74.62
17607;BME280;69222;52.242;20.980;2023-04-25T03:52:00;99027.97;;;12.41;74.27
17607;BME280;69222;52.242;20.980;2023-04-25T03:54:28;99027.06;;;12.42;74.11
17607;BME280;69222;52.242;20.980;2023-04-25T03:56:57;99028.00;;;12.40;73.90
17607;BME280;69222;52.242;20.980;2023-04-25T03:59:25;99033.91;;;12.43;74.49
17607;BME280;69222;52.242;20.980;2023-04-25T04:01:54;99027.72;;;12.47;73.90
17607;BME280;69222;52.242;20.980;2023-04-25T04:04:21;99032.16;;;12.44;73.88
17607;BME280;69222;52.242;20.980;2023-04-25T04:06:50;99033.00;;;12.44;73.83
17607;BME280;69222;52.242;20.980;2023-04-25T04:09:18;99038.16;;;12.44;73.94
17607;BME280;69222;52.242;20.980;2023-04-25T04:11:47;99036.47;;;12.43;73.71
17607;BME280;69222;52.242;20.980;2023-04-25T04:14:16;99043.22;;;12.47;73.87
17607;BME280;69222;52.242;20.980;2023-04-25T04:16:44;99034.59;;;12.48;73.47
17607;BME280;69222;52.242;20.980;2023-04-25T04:19:12;99051.69;;;12.52;73.90
17607;BME280;69222;52.242;20.980;2023-04-25T04:21:40;99043.84;;;12.54;73.57
17607;BME280;69222;52.242;20.980;2023-04-25T04:24:08;99042.09;;;12.54;73.53
17607;BME280;69222;52.242;20.980;2023-04-25T04:26:36;99048.19;;;12.53;73.29
17607;BME280;69222;52.242;20.980;2023-04-25T04:29:05;99043.22;;;12.47;73.58
17607;BME280;69222;52.242;20.980;2023-04-25T04:31:34;99041.47;;;12.48;73.53
17607;BME280;69222;52.242;20.980;2023-04-25T04:34:03;99045.06;;;12.44;73.84
17607;BME280;69222;52.242;20.980;2023-04-25T04:36:31;99048.50;;;12.44;73.61
17607;BME280;69222;52.242;20.980;2023-04-25T04:38:59;99045.03;;;12.45;73.79
17607;BME280;69222;52.242;20.980;2023-04-25T04:41:27;99048.38;;;12.47;73.82
17607;BME280;69222;52.242;20.980;2023-04-25T04:43:55;99042.22;;;12.51;73.46
17607;BME280;69222;52.242;20.980;2023-04-25T04:46:23;99054.13;;;12.55;73.89
17607;BME280;69222;52.242;20.980;2023-04-25T04:48:53;99045.69;;;12.50;73.72
17607;BME280;69222;52.242;20.980;2023-04-25T04:51:23;99050.94;;;12.49;74.03
17607;BME280;69222;52.242;20.980;2023-04-25T04:53:50;99055.19;;;12.50;73.91
17607;BME280;69222;52.242;20.980;2023-04-25T04:56:19;99056.88;;;12.51;74.43
17607;BME280;69222;52.242;20.980;2023-04-25T04:58:49;99061.88;;;12.55;74.68
17607;BME280;69222;52.242;20.980;2023-04-25T05:01:17;99059.44;;;12.52;74.42
17607;BME280;69222;52.242;20.980;2023-04-25T05:03:45;99064.69;;;12.49;74.86
17607;BME280;69222;52.242;20.980;2023-04-25T05:06:16;99052.81;;;12.44;74.71
17607;BME280;69222;52.242;20.980;2023-04-25T05:08:44;99061.56;;;12.40;75.49
17607;BME280;69222;52.242;20.980;2023-04-25T05:11:12;99055.66;;;12.36;75.60
17607;BME280;69222;52.242;20.980;2023-04-25T05:13:39;99054.84;;;12.36;76.02
17607;BME280;69222;52.242;20.980;2023-04-25T05:16:07;99055.78;;;12.33;75.56
17607;BME280;69222;52.242;20.980;2023-04-25T05:18:35;99050.78;;;12.28;76.06
17607;BME280;69222;52.242;20.980;2023-04-25T05:21:04;99063.69;;;12.28;76.12
17607;BME280;69222;52.242;20.980;2023-04-25T05:23:33;99057.84;;;12.23;75.91
17607;BME280;69222;52.242;20.980;2023-04-25T05:26:01;99072.69;;;12.17;76.82
17607;BME280;69222;52.242;20.980;2023-04-25T05:28:29;99061.56;;;12.15;76.81
17607;BME280;69222;52.242;20.980;2023-04-25T05:30:57;99068.53;;;12.13;76.48
17607;BME280;69222;52.242;20.980;2023-04-25T05:33:25;99071.16;;;12.11;76.41
17607;BME280;69222;52.242;20.980;2023-04-25T05:35:52;99078.13;;;12.09;76.16
17607;BME280;69222;52.242;20.980;2023-04-25T05:38:20;99076.44;;;12.08;76.78
17607;BME280;69222;52.242;20.980;2023-04-25T05:40:50;99079.78;;;12.12;76.19
17607;BME280;69222;52.242;20.980;2023-04-25T05:43:17;99074.53;;;12.13;76.82
17607;BME280;69222;52.242;20.980;2023-04-25T05:45:45;99072.69;;;12.17;76.70
17607;BME280;69222;52.242;20.980;2023-04-25T05:48:13;99074.63;;;12.10;76.06
17607;BME280;69222;52.242;20.980;2023-04-25T05:50:41;99074.69;;;12.08;76.79
17607;BME280;69222;52.242;20.980;2023-04-25T05:53:09;99077.13;;;12.13;76.80
17607;BME280;69222;52.242;20.980;2023-04-25T05:55:37;99072.91;;;12.11;76.79
17607;BME280;69222;52.242;20.980;2023-04-25T05:58:07;99072.22;;;12.05;76.58
17607;BME280;69222;52.242;20.980;2023-04-25T06:00:35;99079.31;;;11.99;76.62
17607;BME280;69222;52.242;20.980;2023-04-25T06:03:03;99076.84;;;11.96;76.88
17607;BME280;69222;52.242;20.980;2023-04-25T06:05:31;99080.22;;;11.98;77.14
17607;BME280;69222;52.242;20.980;2023-04-25T06:07:59;99091.38;;;11.98;76.56
17607;BME280;69222;52.242;20.980;2023-04-25T06:10:27;99093.28;;;11.93;76.40
17607;BME280;69222;52.242;20.980;2023-04-25T06:12:56;99092.47;;;11.91;77.00
17607;BME280;69222;52.242;20.980;2023-04-25T06:15:26;99095.88;;;11.93;76.45
17607;BME280;69222;52.242;20.980;2023-04-25T06:17:55;99101.78;;;11.97;76.41
17607;BME280;69222;52.242;20.980;2023-04-25T06:20:23;99109.38;;;12.01;76.19
17607;BME280;69222;52.242;20.980;2023-04-25T06:22:51;99110.13;;;12.03;75.99
17607;BME280;69222;52.242;20.980;2023-04-25T06:25:19;99110.03;;;12.06;76.10
17607;BME280;69222;52.242;20.980;2023-04-25T06:27:47;99116.78;;;12.11;75.96
17607;BME280;69222;52.242;20.980;2023-04-25T06:30:15;99115.84;;;12.13;75.87
17607;BME280;69222;52.242;20.980;2023-04-25T06:32:46;99130.50;;;12.13;75.85
17607;BME280;69222;52.242;20.980;2023-04-25T06:35:14;99134.00;;;12.12;75.65
17607;BME280;69222;52.242;20.980;2023-04-25T06:37:42;99136.59;;;12.10;75.44
17607;BME280;69222;52.242;20.980;2023-04-25T06:40:10;99140.28;;;12.03;75.94
17607;BME280;69222;52.242;20.980;2023-04-25T06:42:38;99128.47;;;11.96;75.88
17607;BME280;69222;52.242;20.980;2023-04-25T06:45:07;99137.28;;;11.89;75.38
17607;BME280;69222;52.242;20.980;2023-04-25T06:47:35;99137.66;;;11.76;76.59
17607;BME280;69222;52.242;20.980;2023-04-25T06:50:05;99133.66;;;11.66;75.77
17607;BME280;69222;52.242;20.980;2023-04-25T06:52:34;99127.97;;;11.55;76.08
17607;BME280;69222;52.242;20.980;2023-04-25T06:55:01;99129.38;;;11.37;75.71
17607;BME280;69222;52.242;20.980;2023-04-25T06:57:31;99125.41;;;11.27;76.76
17607;BME280;69222;52.242;20.980;2023-04-25T06:59:59;99125.88;;;11.40;77.66
17607;BME280;69222;52.242;20.980;2023-04-25T07:02:28;99133.63;;;11.68;77.32
17607;BME280;69222;52.242;20.980;2023-04-25T07:04:56;99116.34;;;11.98;75.93
17607;BME280;69222;52.242;20.980;2023-04-25T07:07:28;99111.94;;;12.28;74.88
17607;BME280;69222;52.242;20.980;2023-04-25T07:09:56;99105.03;;;12.53;73.46
17607;BME280;69222;52.242;20.980;2023-04-25T07:12:24;99108.66;;;12.73;72.22
17607;BME280;69222;52.242;20.980;2023-04-25T07:14:52;99116.44;;;12.96;71.62
17607;BME280;69222;52.242;20.980;2023-04-25T07:17:21;99114.88;;;13.16;69.95
17607;BME280;69222;52.242;20.980;2023-04-25T07:19:49;99123.03;;;13.52;69.53
17607;BME280;69222;52.242;20.980;2023-04-25T07:22:18;99109.59;;;13.86;68.33
17607;BME280;69222;52.242;20.980;2023-04-25T07:24:47;99111.06;;;14.14;66.95
17607;BME280;69222;52.242;20.980;2023-04-25T07:27:15;99120.09;;;14.25;65.83
17607;BME280;69222;52.242;20.980;2023-04-25T07:29:43;99121.88;;;14.23;63.87
17607;BME280;69222;52.242;20.980;2023-04-25T07:32:11;99119.78;;;14.33;64.65
17607;BME280;69222;52.242;20.980;2023-04-25T07:34:40;99119.66;;;14.57;64.49
17607;BME280;69222;52.242;20.980;2023-04-25T07:37:08;99122.13;;;14.60;62.16
17607;BME280;69222;52.242;20.980;2023-04-25T07:39:37;99126.72;;;14.33;62.57
17607;BME280;69222;52.242;20.980;2023-04-25T07:42:06;99124.59;;;14.00;64.01
17607;BME280;69222;52.242;20.980;2023-04-25T07:44:35;99133.81;;;13.85;64.31
17607;BME280;69222;52.242;20.980;2023-04-25T07:47:05;99135.50;;;13.86;64.82
17607;BME280;69222;52.242;20.980;2023-04-25T07:49:34;99135.28;;;13.91;64.35
17607;BME280;69222;52.242;20.980;2023-04-25T07:52:04;99143.91;;;13.91;65.40
17607;BME280;69222;52.242;20.980;2023-04-25T07:54:32;99130.72;;;13.97;64.79
17607;BME280;69222;52.242;20.980;2023-04-25T07:57:01;99129.66;;;13.81;64.45
17607;BME280;69222;52.242;20.980;2023-04-25T07:59:31;99119.84;;;13.67;65.13
17607;BME280;69222;52.242;20.980;2023-04-25T08:01:59;99135.41;;;13.66;64.96
17607;BME280;69222;52.242;20.980;2023-04-25T08:04:27;99128.44;;;13.68;64.58
17607;BME280;69222;52.242;20.980;2023-04-25T08:06:55;99130.84;;;13.72;64.63
17607;BME280;69222;52.242;20.980;2023-04-25T08:09:23;99143.47;;;13.80;63.67
17607;BME280;69222;52.242;20.980;2023-04-25T08:11:51;99137.34;;;13.83;63.92
17607;BME280;69222;52.242;20.980;2023-04-25T08:14:19;99147.81;;;13.80;63.99
17607;BME280;69222;52.242;20.980;2023-04-25T08:16:49;99145.66;;;13.69;63.82
17607;BME280;69222;52.242;20.980;2023-04-25T08:19:16;99143.00;;;13.48;63.93
17607;BME280;69222;52.242;20.980;2023-04-25T08:21:44;99135.03;;;13.31;65.08
17607;BME280;69222;52.242;20.980;2023-04-25T08:24:12;99144.88;;;13.20;65.37
17607;BME280;69222;52.242;20.980;2023-04-25T08:26:40;99140.03;;;13.11;65.38
17607;BME280;69222;52.242;20.980;2023-04-25T08:29:08;99145.72;;;12.97;66.81
17607;BME280;69222;52.242;20.980;2023-04-25T08:31:36;99158.78;;;12.92;67.14
17607;BME280;69222;52.242;20.980;2023-04-25T08:34:06;99161.72;;;12.83;67.57
17607;BME280;69222;52.242;20.980;2023-04-25T08:36:33;99163.16;;;12.67;67.72
17607;BME280;69222;52.242;20.980;2023-04-25T08:39:05;99165.41;;;12.51;67.82
17607;BME280;69222;52.242;20.980;2023-04-25T08:41:34;99165.13;;;12.33;68.20
17607;BME280;69222;52.242;20.980;2023-04-25T08:44:02;99169.75;;;12.24;68.96
17607;BME280;69222;52.242;20.980;2023-04-25T08:46:31;99175.00;;;12.21;69.25
17607;BME280;69222;52.242;20.980;2023-04-25T08:49:01;99167.34;;;12.18;68.45
17607;BME280;69222;52.242;20.980;2023-04-25T08:51:32;99176.91;;;12.16;69.80
17607;BME280;69222;52.242;20.980;2023-04-25T08:54:08;99185.69;;;12.37;69.23
17607;BME280;69222;52.242;20.980;2023-04-25T08:56:57;99191.53;;;12.68;68.53
17607;BME280;69222;52.242;20.980;2023-04-25T08:59:28;99192.41;;;12.92;68.38
17607;BME280;69222;52.242;20.980;2023-04-25T09:01:57;99189.06;;;13.14;65.45
17607;BME280;69222;52.242;20.980;2023-04-25T09:04:25;99198.38;;;13.19;64.83
17607;BME280;69222;52.242;20.980;2023-04-25T09:06:54;99190.66;;;13.18;64.94
17607;BME280;69222;52.242;20.980;2023-04-25T09:09:23;99198.16;;;13.25;64.75
17607;BME280;69222;52.242;20.980;2023-04-25T09:11:54;99195.16;;;13.13;65.09
17607;BME280;69222;52.242;20.980;2023-04-25T09:14:22;99209.66;;;12.92;65.43
17607;BME280;69222;52.242;20.980;2023-04-25T09:17:00;99204.50;;;12.67;66.35
17607;BME280;69222;52.242;20.980;2023-04-25T09:19:30;99209.47;;;12.46;66.25
17607;BME280;69222;52.242;20.980;2023-04-25T09:22:08;99204.09;;;12.26;67.32
17607;BME280;69222;52.242;20.980;2023-04-25T09:24:37;99209.56;;;12.17;67.69
17607;BME280;69222;52.242;20.980;2023-04-25T09:27:06;99206.38;;;12.08;68.46
17607;BME280;69222;52.242;20.980;2023-04-25T09:29:36;99216.50;;;12.15;68.86
17607;BME280;69222;52.242;20.980;2023-04-25T09:32:11;99218.91;;;12.21;68.27
17607;BME280;69222;52.242;20.980;2023-04-25T09:34:40;99216.47;;;12.16;67.90
17607;BME280;69222;52.242;20.980;2023-04-25T09:37:17;99220.22;;;12.06;68.49
17607;BME280;69222;52.242;20.980;2023-04-25T09:39:46;99222.88;;;12.04;68.42
17607;BME280;69222;52.242;20.980;2023-04-25T09:42:15;99233.19;;;12.04;68.66
17607;BME280;69222;52.242;20.980;2023-04-25T09:44:43;99229.81;;;12.02;68.85
17607;BME280;69222;52.242;20.980;2023-04-25T09:47:14;99229.81;;;12.02;69.13
17607;BME280;69222;52.242;20.980;2023-04-25T09:49:43;99235.78;;;12.04;69.27
17607;BME280;69222;52.242;20.980;2023-04-25T09:52:16;99230.63;;;12.04;68.29
17607;BME280;69222;52.242;20.980;2023-04-25T09:54:44;99238.53;;;11.98;68.44
17607;BME280;69222;52.242;20.980;2023-04-25T09:57:14;99241.22;;;11.95;68.54
17607;BME280;69222;52.242;20.980;2023-04-25T09:59:46;99248.88;;;11.98;68.88
17607;BME280;69222;52.242;20.980;2023-04-25T10:02:16;99246.19;;;12.01;68.72
17607;BME280;69222;52.242;20.980;2023-04-25T10:04:48;99230.78;;;11.98;68.23
17607;BME280;69222;52.242;20.980;2023-04-25T10:07:20;99250.63;;;11.96;68.58
17607;BME280;69222;52.242;20.980;2023-04-25T10:09:55;99249.84;;;11.94;68.95
17607;BME280;69222;52.242;20.980;2023-04-25T10:12:26;99243.84;;;11.94;68.63
17607;BME280;69222;52.242;20.980;2023-04-25T10:14:54;99250.09;;;11.87;68.70
17607;BME280;69222;52.242;20.980;2023-04-25T10:17:23;99241.72;;;11.77;69.24
17607;BME280;69222;52.242;20.980;2023-04-25T10:19:52;99244.59;;;11.68;69.71
17607;BME280;69222;52.242;20.980;2023-04-25T10:22:29;99251.50;;;11.66;70.42
17607;BME280;69222;52.242;20.980;2023-04-25T10:24:58;99251.44;;;11.69;70.60
17607;BME280;69222;52.242;20.980;2023-04-25T10:27:27;99242.00;;;11.68;70.64
17607;BME280;69222;52.242;20.980;2023-04-25T10:30:06;99247.25;;;11.65;70.21
17607;BME280;69222;52.242;20.980;2023-04-25T10:32:37;99253.31;;;11.64;70.40
17607;BME280;69222;52.242;20.980;2023-04-25T10:35:13;99251.78;;;11.56;70.83
17607;BME280;69222;52.242;20.980;2023-04-25T10:38:02;99256.13;;;11.54;71.50
17607;BME280;69222;52.242;20.980;2023-04-25T10:40:31;99245.72;;;11.57;71.39
17607;BME280;69222;52.242;20.980;2023-04-25T10:43:33;99245.56;;;11.64;71.17
17607;BME280;69222;52.242;20.980;2023-04-25T10:46:02;99249.78;;;11.66;71.36
17607;BME280;69222;52.242;20.980;2023-04-25T10:48:32;99242.94;;;11.65;70.93
17607;BME280;69222;52.242;20.980;2023-04-25T10:51:08;99246.50;;;11.61;70.79
17607;BME280;69222;52.242;20.980;2023-04-25T10:53:37;99248.25;;;11.59;70.98
17607;BME280;69222;52.242;20.980;2023-04-25T10:56:16;99247.34;;;11.61;71.19
17607;BME280;69222;52.242;20.980;2023-04-25T10:58:45;99252.50;;;11.61;70.79
17607;BME280;69222;52.242;20.980;2023-04-25T11:01:20;99245.56;;;11.64;70.54
17607;BME280;69222;52.242;20.980;2023-04-25T11:03:48;99248.91;;;11.67;71.10
17607;BME280;69222;52.242;20.980;2023-04-25T11:06:22;99247.94;;;11.71;70.84
17607;BME280;69222;52.242;20.980;2023-04-25T11:08:52;99250.50;;;11.71;70.52
17607;BME280;69222;52.242;20.980;2023-04-25T11:11:20;99258.25;;;11.71;71.11
17607;BME280;69222;52.242;20.980;2023-04-25T11:13:48;99258.81;;;11.81;70.57
17607;BME280;69222;52.242;20.980;2023-04-25T11:16:17;99255.19;;;11.88;70.76
17607;BME280;69222;52.242;20.980;2023-04-25T11:18:53;99256.78;;;11.92;70.98
17607;BME280;69222;52.242;20.980;2023-04-25T11:21:25;99254.94;;;11.97;70.21
17607;BME280;69222;52.242;20.980;2023-04-25T11:23:56;99244.53;;;12.00;68.98
17607;BME280;69222;52.242;20.980;2023-04-25T11:26:24;99251.44;;;11.98;68.19
17607;BME280;69222;52.242;20.980;2023-04-25T11:28:57;99255.91;;;11.93;68.19
17607;BME280;69222;52.242;20.980;2023-04-25T11:31:25;99253.41;;;11.90;67.62
17607;BME280;69222;52.242;20.980;2023-04-25T11:33:53;99256.88;;;11.89;68.57
17607;BME280;69222;52.242;20.980;2023-04-25T11:36:22;99258.59;;;11.90;68.33
17607;BME280;69222;52.242;20.980;2023-04-25T11:38:53;99249.00;;;11.94;67.88
17607;BME280;69222;52.242;20.980;2023-04-25T11:41:22;99248.16;;;11.93;67.39
17607;BME280;69222;52.242;20.980;2023-04-25T11:43:52;99246.38;;;11.95;67.11
17607;BME280;69222;52.242;20.980;2023-04-25T11:46:21;99247.28;;;11.94;66.85
17607;BME280;69222;52.242;20.980;2023-04-25T11:48:50;99248.81;;;12.00;66.86
17607;BME280;69222;52.242;20.980;2023-04-25T11:51:18;99247.97;;;11.99;66.24
17607;BME280;69222;52.242;20.980;2023-04-25T11:53:46;99254.09;;;11.97;66.50
17607;BME280;69222;52.242;20.980;2023-04-25T11:56:14;99248.34;;;11.87;66.47
17607;BME280;69222;52.242;20.980;2023-04-25T11:58:57;99250.94;;;11.85;66.89
17607;BME280;69222;52.242;20.980;2023-04-25T12:01:27;99250.94;;;11.87;66.58
17607;BME280;69222;52.242;20.980;2023-04-25T12:04:11;99248.34;;;11.87;65.84
17607;BME280;69222;52.242;20.980;2023-04-25T12:06:41;99248.34;;;11.87;66.21
17607;BME280;69222;52.242;20.980;2023-04-25T12:09:10;99253.44;;;11.89;66.49
17607;BME280;69222;52.242;20.980;2023-04-25T12:11:43;99254.19;;;11.92;66.53
17607;BME280;69222;52.242;20.980;2023-04-25T12:14:20;99247.19;;;11.97;66.33
17607;BME280;69222;52.242;20.980;2023-04-25T12:16:51;99237.66;;;11.99;65.55
17607;BME280;69222;52.242;20.980;2023-04-25T12:19:20;99241.88;;;12.02;65.38
17607;BME280;69222;52.242;20.980;2023-04-25T12:21:49;99241.81;;;12.03;64.96
17607;BME280;69222;52.242;20.980;2023-04-25T12:24:25;99242.81;;;11.99;63.28
17607;BME280;69222;52.242;20.980;2023-04-25T12:26:59;99237.72;;;11.96;63.88
17607;BME280;69222;52.242;20.980;2023-04-25T12:29:31;99247.28;;;11.94;63.39
17607;BME280;69222;52.242;20.980;2023-04-25T12:32:13;99246.66;;;11.86;63.11
17607;BME280;69222;52.242;20.980;2023-04-25T12:34:42;99245.88;;;11.82;62.95
17607;BME280;69222;52.242;20.980;2023-04-25T12:37:10;99248.75;;;11.72;63.34
17607;BME280;69222;52.242;20.980;2023-04-25T12:39:38;99242.75;;;11.71;63.72
17607;BME280;69222;52.242;20.980;2023-04-25T12:42:06;99246.13;;;11.73;63.24
17607;BME280;69222;52.242;20.980;2023-04-25T12:44:40;99245.47;;;11.67;63.47
17607;BME280;69222;52.242;20.980;2023-04-25T12:47:08;99244.38;;;11.74;63.88
17607;BME280;69222;52.242;20.980;2023-04-25T12:49:36;99241.72;;;11.77;63.30
17607;BME280;69222;52.242;20.980;2023-04-25T12:52:04;99240.81;;;11.78;63.19
17607;BME280;69222;52.242;20.980;2023-04-25T12:54:32;99239.97;;;11.77;63.37
17607;BME280;69222;52.242;20.980;2023-04-25T12:57:00;99251.13;;;11.79;63.41
17607;BME280;69222;52.242;20.980;2023-04-25T12:59:29;99246.88;;;11.77;63.08
17607;BME280;69222;52.242;20.980;2023-04-25T13:01:59;99248.56;;;11.78;63.18